Time;durP1;ratioP1;P1;durP2;ratioP2;P2;SDS_P1;SDS_P2;PMS_P1;PMS_P2;Temp;Humidity;BMP_temperature;BMP_pressure;BME280_temperature;BME280_humidity;BME280_pressure;Samples;Min_cycle;Max_cycle;Signal;HPM_P1;HPM_P2
2022/10/17 00:01:35;;;;;;;3.03;1.90;;;;;;;12.63;100.00;101395.97;5998559;28;20290;-66
2022/10/17 00:04:30;;;;;;;4.37;2.10;;;;;;;12.59;100.00;101383.94;5999101;28;20090;-66
2022/10/17 00:07:26;;;;;;;3.17;1.93;;;;;;;12.61;100.00;101387.28;5998984;28;20030;-66
2022/10/17 00:10:21;;;;;;;3.70;2.13;;;;;;;12.61;100.00;101392.59;5998557;28;20190;-66
2022/10/17 00:13:16;;;;;;;3.83;1.97;;;;;;;12.54;100.00;101380.84;5998846;28;20033;-66
2022/10/17 00:16:12;;;;;;;5.40;1.87;;;;;;;12.40;100.00;101365.31;5999051;28;20035;-66
2022/10/17 00:19:07;;;;;;;6.20;2.05;;;;;;;12.49;100.00;101393.75;5998732;28;20093;-66
2022/10/17 00:22:02;;;;;;;3.57;1.93;;;;;;;12.62;100.00;101394.28;5998497;28;20058;-66
2022/10/17 00:24:58;;;;;;;8.00;1.90;;;;;;;12.63;100.00;101382.66;5999201;28;20732;-66
2022/10/17 00:27:53;;;;;;;3.40;1.98;;;;;;;12.68;100.00;101376.91;5998587;28;20118;-66
2022/10/17 00:31:03;;;;;;;4.97;1.97;;;;;;;12.76;100.00;101385.88;5998191;28;20058;-66
2022/10/17 00:33:58;;;;;;;3.53;1.80;;;;;;;12.75;100.00;101370.03;5998319;28;20270;-66
2022/10/17 00:36:54;;;;;;;7.43;2.13;;;;;;;12.82;100.00;101387.97;5998391;28;20472;-66
2022/10/17 00:39:49;;;;;;;6.67;2.20;;;;;;;12.75;100.00;101383.31;5998216;28;20747;-66
2022/10/17 00:42:44;;;;;;;5.60;2.20;;;;;;;12.64;100.00;101371.03;5998437;28;20039;-66
2022/10/17 00:45:40;;;;;;;5.15;2.42;;;;;;;12.66;100.00;101378.88;5998708;28;20031;-66
2022/10/17 00:48:35;;;;;;;4.00;1.97;;;;;;;12.55;100.00;101377.22;5998742;28;20086;-66
2022/10/17 00:51:48;;;;;;;6.37;2.30;;;;;;;12.49;100.00;101377.78;5997705;28;20022;-66
2022/10/17 00:54:46;;;;;;;6.25;2.60;;;;;;;12.39;100.00;101364.47;6003314;28;20043;-66
2022/10/17 00:57:42;;;;;;;6.97;2.75;;;;;;;12.40;100.00;101368.00;6001949;28;20061;-66
2022/10/17 01:00:37;;;;;;;4.97;2.35;;;;;;;12.36;100.00;101374.59;6002241;28;20058;-67
2022/10/17 01:03:33;;;;;;;5.40;2.70;;;;;;;12.28;100.00;101358.50;6003021;28;20035;-66
2022/10/17 01:06:28;;;;;;;5.13;3.30;;;;;;;12.28;100.00;101366.47;6003014;28;20045;-66
2022/10/17 01:09:24;;;;;;;5.10;2.93;;;;;;;12.28;100.00;101363.81;6003055;28;20424;-66
2022/10/17 01:12:27;;;;;;;3.60;2.40;;;;;;;12.21;100.00;101352.88;6002504;28;20547;-66
2022/10/17 01:15:42;;;;;;;4.40;2.47;;;;;;;12.27;100.00;101367.44;6001409;28;20037;-67
2022/10/17 01:19:01;;;;;;;3.83;2.17;;;;;;;12.22;100.00;101353.72;6002849;28;20081;-66
2022/10/17 01:21:59;;;;;;;5.05;2.70;;;;;;;12.24;100.00;101362.41;6001000;28;20038;-66
2022/10/17 01:25:00;;;;;;;5.63;2.33;;;;;;;12.24;100.00;101362.41;6001186;28;20030;-67
2022/10/17 01:28:13;;;;;;;4.40;2.40;;;;;;;12.21;100.00;101368.00;6002816;28;20439;-66
2022/10/17 01:31:13;;;;;;;4.47;2.33;;;;;;;12.21;100.00;101362.69;6001972;28;20031;-66
2022/10/17 01:34:18;;;;;;;5.32;2.67;;;;;;;12.15;100.00;101355.28;6013168;28;20038;-66
2022/10/17 01:37:32;;;;;;;5.38;2.28;;;;;;;12.27;100.00;101354.16;6001161;28;20494;-67
2022/10/17 01:40:36;;;;;;;3.97;2.00;;;;;;;12.17;100.00;101353.31;6016818;28;20034;-66
2022/10/17 01:44:05;;;;;;;3.75;2.13;;;;;;;12.20;100.00;101350.38;6002254;28;20570;-67
2022/10/17 01:47:06;;;;;;;5.45;1.92;;;;;;;12.14;100.00;101337.66;5997625;28;20047;-66
2022/10/17 01:50:06;;;;;;;4.35;2.28;;;;;;;12.10;100.00;101337.06;6000984;28;20037;-67
2022/10/17 01:53:06;;;;;;;4.50;2.13;;;;;;;12.05;100.00;101344.63;6002556;28;20039;-67
2022/10/17 01:56:03;;;;;;;7.10;2.10;;;;;;;12.02;100.00;101339.59;6000780;28;20603;-66
2022/10/17 01:59:06;;;;;;;4.40;2.30;;;;;;;11.84;100.00;101322.69;6016907;28;20030;-66
2022/10/17 02:02:02;;;;;;;3.70;2.20;;;;;;;11.89;100.00;101342.53;5999394;28;20042;-66
2022/10/17 02:04:58;;;;;;;5.20;2.25;;;;;;;11.86;100.00;101337.50;5999576;28;20034;-66
2022/10/17 02:07:53;;;;;;;4.57;2.28;;;;;;;11.94;100.00;101340.31;6000512;28;20034;-66
2022/10/17 02:11:04;;;;;;;4.75;2.28;;;;;;;11.85;100.00;101322.53;6000831;28;20434;-66
2022/10/17 02:14:14;;;;;;;4.43;2.08;;;;;;;11.77;100.00;101348.09;6000362;28;20027;-66
2022/10/17 02:17:24;;;;;;;4.57;2.65;;;;;;;11.75;100.00;101342.94;6001307;28;20118;-66
2022/10/17 02:20:23;;;;;;;5.68;3.40;;;;;;;11.73;100.00;101330.78;5990608;28;20410;-66
2022/10/17 02:23:43;;;;;;;5.28;2.60;;;;;;;11.77;100.00;101332.16;6001638;28;20027;-66
2022/10/17 02:26:53;;;;;;;5.60;3.10;;;;;;;11.73;100.00;101331.63;6000279;28;20042;-66
2022/10/17 02:29:57;;;;;;;5.28;3.28;;;;;;;11.69;100.00;101324.03;6001003;28;20166;-66
2022/10/17 02:33:15;;;;;;;9.52;3.45;;;;;;;11.75;100.00;101324.34;6015422;28;20222;-66
2022/10/17 02:36:16;;;;;;;6.38;3.40;;;;;;;11.72;100.00;101313.16;5999090;28;20058;-66
2022/10/17 02:39:12;;;;;;;6.68;3.50;;;;;;;11.71;100.00;101312.31;5999798;28;20038;-66
2022/10/17 02:42:09;;;;;;;12.23;3.60;;;;;;;11.69;100.00;101308.09;6000327;28;20038;-66
2022/10/17 02:45:05;;;;;;;5.85;3.00;;;;;;;11.68;100.00;101309.91;5999256;28;20051;-66
2022/10/17 02:48:24;;;;;;;6.85;3.70;;;;;;;11.76;100.00;101326.03;5999448;28;20042;-66
2022/10/17 02:51:25;;;;;;;6.18;3.63;;;;;;;11.76;100.00;101320.72;5998972;28;20078;-66
2022/10/17 02:54:24;;;;;;;7.90;3.05;;;;;;;11.72;100.00;101306.03;6000520;28;20063;-66
2022/10/17 02:57:38;;;;;;;7.63;3.33;;;;;;;11.78;100.00;101323.22;6000616;28;20081;-66
2022/10/17 03:00:34;;;;;;;9.00;3.50;;;;;;;11.76;100.00;101323.38;5999416;28;20825;-66
2022/10/17 03:03:30;;;;;;;5.68;3.50;;;;;;;11.73;100.00;101314.84;6000031;28;20047;-66
2022/10/17 03:06:26;;;;;;;7.25;3.10;;;;;;;11.68;100.00;101306.41;6000732;28;20035;-66
2022/10/17 03:09:21;;;;;;;7.50;3.37;;;;;;;11.58;100.00;101300.22;6000473;28;20042;-66
2022/10/17 03:12:16;;;;;;;6.03;3.20;;;;;;;11.58;100.00;101311.69;5999863;28;20030;-66
2022/10/17 03:15:12;;;;;;;6.50;4.20;;;;;;;11.59;100.00;101308.06;5998736;28;20293;-66
2022/10/17 03:18:07;;;;;;;6.53;3.65;;;;;;;11.58;100.00;101305.53;6000013;28;20054;-66
2022/10/17 03:21:03;;;;;;;7.20;4.13;;;;;;;11.55;100.00;101301.34;5999387;28;20057;-66
2022/10/17 03:23:58;;;;;;;7.43;3.50;;;;;;;11.62;100.00;101321.09;5999206;28;20534;-66
2022/10/17 03:26:54;;;;;;;12.40;4.57;;;;;;;11.51;100.00;101302.63;6000018;28;20368;-66
2022/10/17 03:29:49;;;;;;;9.98;4.70;;;;;;;11.53;100.00;101302.47;5999650;28;20066;-66
2022/10/17 03:32:44;;;;;;;13.17;6.13;;;;;;;11.56;100.00;101303.03;5998921;28;20130;-66
2022/10/17 03:35:40;;;;;;;10.17;4.73;;;;;;;11.59;100.00;101308.06;5999126;28;20854;-66
2022/10/17 03:38:35;;;;;;;10.83;4.33;;;;;;;11.52;100.00;101301.66;5999109;28;20039;-66
2022/10/17 03:41:30;;;;;;;9.27;4.53;;;;;;;11.49;100.00;101299.25;5998966;28;20623;-66
2022/10/17 03:44:26;;;;;;;10.00;4.90;;;;;;;11.52;100.00;101311.44;5999274;28;20129;-66
2022/10/17 03:47:21;;;;;;;11.17;4.43;;;;;;;11.55;100.00;101317.28;5999277;28;20101;-66
2022/10/17 03:50:16;;;;;;;10.33;5.13;;;;;;;11.74;100.00;101321.84;5997374;28;20274;-66
2022/10/17 03:53:12;;;;;;;10.80;4.90;;;;;;;11.82;100.00;101319.31;5996319;28;20066;-66
2022/10/17 03:56:09;;;;;;;9.00;4.57;;;;;;;11.77;100.00;101303.78;5998982;28;20125;-66
2022/10/17 03:59:05;;;;;;;9.68;4.47;;;;;;;11.81;100.00;101307.00;5999339;28;20035;-66
2022/10/17 04:02:00;;;;;;;10.20;5.10;;;;;;;11.84;100.00;101314.72;5998625;28;20050;-66
2022/10/17 04:04:55;;;;;;;11.23;4.87;;;;;;;11.94;100.00;101311.06;5999288;28;20471;-66
2022/10/17 04:07:51;;;;;;;11.37;4.93;;;;;;;12.07;100.00;101324.06;5999059;28;20346;-66
2022/10/17 04:10:46;;;;;;;11.80;5.23;;;;;;;12.08;100.00;101315.13;5998781;28;20027;-66
2022/10/17 04:13:42;;;;;;;7.20;4.33;;;;;;;12.06;100.00;101317.09;5999240;28;20122;-66
2022/10/17 04:16:37;;;;;;;9.38;4.32;;;;;;;12.13;100.00;101312.03;5999168;28;20271;-66
2022/10/17 04:19:33;;;;;;;10.18;4.60;;;;;;;12.23;100.00;101318.19;5999290;28;20534;-66
2022/10/17 04:22:28;;;;;;;9.77;4.87;;;;;;;12.18;100.00;101317.75;5998556;28;20074;-66
2022/10/17 04:25:23;;;;;;;8.47;4.40;;;;;;;12.14;100.00;101311.91;5999073;28;20289;-66
2022/10/17 04:28:19;;;;;;;11.23;4.50;;;;;;;12.35;100.00;101327.69;5998906;28;20106;-66
2022/10/17 04:31:14;;;;;;;9.57;4.30;;;;;;;12.52;100.00;101327.81;5998442;28;20262;-66
2022/10/17 04:34:09;;;;;;;9.27;4.07;;;;;;;12.59;100.00;101329.88;5998247;28;20030;-66
2022/10/17 04:37:05;;;;;;;8.73;3.65;;;;;;;12.71;100.00;101323.41;5997275;28;20328;-66
2022/10/17 04:40:00;;;;;;;6.93;4.50;;;;;;;12.81;100.00;101330.38;5998781;28;20027;-66
2022/10/17 04:42:56;;;;;;;7.10;3.53;;;;;;;12.93;100.00;101336.38;5998349;28;20088;-66
2022/10/17 04:45:51;;;;;;;7.97;3.72;;;;;;;13.03;100.00;101318.50;5999178;28;20058;-66
2022/10/17 04:48:46;;;;;;;7.53;3.73;;;;;;;13.05;100.00;101317.38;5996601;28;20035;-66
2022/10/17 04:51:42;;;;;;;11.53;4.03;;;;;;;13.10;100.00;101317.81;5991850;28;20031;-66
2022/10/17 04:54:37;;;;;;;8.50;3.50;;;;;;;13.14;100.00;101321.03;5998665;28;20715;-66
2022/10/17 04:57:34;;;;;;;7.63;3.77;;;;;;;13.24;100.00;101331.63;5998565;28;20038;-66
2022/10/17 05:00:29;;;;;;;7.80;3.45;;;;;;;13.29;100.00;101332.03;5997940;28;20034;-66
2022/10/17 05:03:25;;;;;;;6.77;3.20;;;;;;;13.19;100.00;101304.59;5997925;28;20776;-66
2022/10/17 05:06:26;;;;;;;8.47;4.67;;;;;;;13.27;100.00;101318.00;5998795;28;20073;-66
2022/10/17 05:09:22;;;;;;;6.03;3.30;;;;;;;13.18;100.00;101310.94;5998756;28;20046;-66
2022/10/17 05:12:17;;;;;;;5.83;3.40;;;;;;;13.13;100.00;101313.19;5997592;28;20058;-66
2022/10/17 05:15:12;;;;;;;7.30;3.47;;;;;;;13.13;100.00;101325.50;5997793;28;20379;-66
2022/10/17 05:18:08;;;;;;;7.78;3.30;;;;;;;13.13;100.00;101330.84;5998468;28;20067;-66
2022/10/17 05:21:04;;;;;;;11.52;4.22;;;;;;;13.09;100.00;101329.47;5997500;28;20035;-66
2022/10/17 05:23:59;;;;;;;7.13;3.45;;;;;;;13.05;100.00;101333.34;5998359;28;20586;-66
2022/10/17 05:26:54;;;;;;;5.83;3.03;;;;;;;13.15;100.00;101333.38;5998143;28;20035;-66
2022/10/17 05:29:50;;;;;;;10.60;3.70;;;;;;;13.25;100.00;101328.81;5997378;28;20086;-66
2022/10/17 05:32:45;;;;;;;8.77;3.47;;;;;;;13.46;100.00;101326.72;5997833;28;20041;-65
2022/10/17 05:35:40;;;;;;;6.33;2.77;;;;;;;13.57;100.00;101318.53;5997751;28;20282;-66
2022/10/17 05:38:35;;;;;;;5.50;2.67;;;;;;;13.71;100.00;101328.69;6000486;28;20074;-66
2022/10/17 05:41:31;;;;;;;5.13;2.80;;;;;;;13.69;100.00;101316.50;6001314;28;20033;-65
2022/10/17 05:44:26;;;;;;;5.57;2.70;;;;;;;13.80;100.00;101328.75;5991389;28;20035;-66
2022/10/17 05:47:21;;;;;;;6.73;2.93;;;;;;;13.78;100.00;101323.56;6000740;28;20046;-66
2022/10/17 05:50:20;;;;;;;5.68;3.25;;;;;;;13.85;100.00;101340.66;6001200;28;20023;-66
2022/10/17 05:53:16;;;;;;;7.88;3.28;;;;;;;13.85;100.00;101348.66;6002028;28;20383;-66
2022/10/17 05:56:12;;;;;;;5.40;2.85;;;;;;;13.93;100.00;101346.06;6001420;28;20039;-66
2022/10/17 05:59:07;;;;;;;5.88;2.63;;;;;;;13.94;100.00;101355.72;5996719;28;20035;-66
2022/10/17 06:02:02;;;;;;;3.87;2.20;;;;;;;13.90;100.00;101340.19;6001038;28;20105;-66
2022/10/17 06:04:58;;;;;;;5.70;3.13;;;;;;;13.95;100.00;101349.41;6001735;28;20510;-67
2022/10/17 06:07:53;;;;;;;5.22;2.60;;;;;;;13.87;100.00;101336.00;6001521;28;20270;-66
2022/10/17 06:10:49;;;;;;;6.77;3.30;;;;;;;13.81;100.00;101333.94;5999905;28;20031;-66
2022/10/17 06:13:44;;;;;;;5.43;2.83;;;;;;;13.76;100.00;101343.38;6001348;28;20729;-66
2022/10/17 06:16:40;;;;;;;9.77;3.22;;;;;;;13.74;100.00;101346.19;6001274;28;20470;-66
2022/10/17 06:19:35;;;;;;;5.55;2.85;;;;;;;13.90;100.00;101354.34;6001539;28;20027;-66
2022/10/17 06:22:31;;;;;;;5.53;3.25;;;;;;;13.93;100.00;101340.72;6000775;28;20082;-66
2022/10/17 06:25:26;;;;;;;9.80;2.87;;;;;;;14.00;100.00;101348.94;6000361;28;20035;-66
2022/10/17 06:28:21;;;;;;;6.90;3.23;;;;;;;14.04;100.00;101353.84;6001296;28;20483;-66
2022/10/17 06:31:17;;;;;;;7.37;2.80;;;;;;;14.08;nan;101352.53;6000599;28;20046;-66
2022/10/17 06:34:13;;;;;;;9.68;2.80;;;;;;;14.15;100.00;101363.44;6001459;28;20018;-66
2022/10/17 06:37:08;;;;;;;6.63;2.90;;;;;;;14.05;100.00;101350.16;6001119;28;20043;-66
2022/10/17 06:40:04;;;;;;;5.30;2.77;;;;;;;14.06;100.00;101354.50;5999713;28;20122;-66
2022/10/17 06:42:59;;;;;;;4.93;2.83;;;;;;;14.06;100.00;101362.50;6001242;28;20379;-66
2022/10/17 06:45:55;;;;;;;5.80;3.00;;;;;;;14.14;100.00;101367.91;6001107;28;20058;-66
2022/10/17 06:48:50;;;;;;;7.70;3.03;;;;;;;14.22;100.00;101372.47;6000205;28;20073;-66
2022/10/17 06:51:45;;;;;;;8.07;2.60;;;;;;;14.28;100.00;101371.88;5999845;28;20039;-66
2022/10/17 06:54:41;;;;;;;7.73;2.90;;;;;;;14.35;100.00;101359.63;5997587;28;20034;-66
2022/10/17 06:57:36;;;;;;;6.23;3.10;;;;;;;14.67;100.00;101370.56;5990515;28;20400;-66
2022/10/17 07:00:31;;;;;;;6.73;2.67;;;;;;;14.94;100.00;101371.38;5999186;28;20031;-66
2022/10/17 07:03:27;;;;;;;9.00;2.80;;;;;;;15.12;100.00;101374.81;6000344;28;20085;-66
2022/10/17 07:06:25;;;;;;;7.40;2.95;;;;;;;15.47;99.66;101378.19;5999978;28;20034;-66
2022/10/17 07:09:21;;;;;;;8.05;3.05;;;;;;;15.67;97.77;101352.03;5999420;28;20430;-66
2022/10/17 07:12:17;;;;;;;5.32;3.00;;;;;;;16.14;95.97;101373.69;5999617;28;20089;-66
2022/10/17 07:15:12;;;;;;;5.93;3.25;;;;;;;16.28;94.50;101381.03;5999700;28;20035;-66
2022/10/17 07:18:07;;;;;;;5.77;2.60;;;;;;;16.35;93.53;101376.72;6000007;28;20462;-66
2022/10/17 07:21:03;;;;;;;5.00;2.00;;;;;;;16.43;93.12;101383.91;5998066;28;20125;-66
2022/10/17 07:23:58;;;;;;;6.55;2.10;;;;;;;16.40;92.99;101384.22;5998554;28;20852;-66
2022/10/17 07:26:54;;;;;;;4.07;2.10;;;;;;;16.47;92.69;101394.09;5999922;28;20078;-66
2022/10/17 07:29:49;;;;;;;4.20;1.90;;;;;;;16.57;91.93;101392.13;5999993;28;20069;-66
2022/10/17 07:32:45;;;;;;;5.27;2.30;;;;;;;16.56;92.27;101403.00;5999853;28;20049;-67
2022/10/17 07:35:40;;;;;;;6.25;2.20;;;;;;;16.57;91.98;101410.03;5999386;28;20034;-66
2022/10/17 07:38:36;;;;;;;3.87;2.40;;;;;;;16.64;91.98;101409.19;5999410;28;20031;-66
2022/10/17 07:41:31;;;;;;;7.38;2.55;;;;;;;16.63;91.50;101399.47;5998944;28;20074;-66
2022/10/17 07:44:26;;;;;;;8.13;2.20;;;;;;;16.87;90.96;101397.78;5999687;28;20027;-67
2022/10/17 07:47:22;;;;;;;3.73;2.23;;;;;;;17.29;89.33;101401.03;5999580;28;20030;-66
2022/10/17 07:50:17;;;;;;;6.53;2.90;;;;;;;17.66;87.34;101392.38;5997879;28;20043;-67
2022/10/17 07:53:12;;;;;;;4.97;2.00;;;;;;;17.83;85.17;101400.16;5999284;28;20048;-67
2022/10/17 07:56:10;;;;;;;4.10;1.98;;;;;;;18.06;84.34;101410.91;5999889;28;20026;-67
2022/10/17 07:59:05;;;;;;;4.60;1.73;;;;;;;18.25;83.38;101425.72;5999121;28;20427;-67
2022/10/17 08:02:01;;;;;;;5.13;1.98;;;;;;;18.35;82.70;101418.25;5998723;28;20079;-66
2022/10/17 08:04:56;;;;;;;6.10;2.20;;;;;;;18.42;82.10;101405.81;5998157;28;20077;-67
2022/10/17 08:07:52;;;;;;;8.63;1.90;;;;;;;18.49;81.46;101417.53;5992102;28;20085;-66
2022/10/17 08:10:47;;;;;;;6.87;1.77;;;;;;;18.66;80.23;101413.69;5998764;28;20108;-67
2022/10/17 08:13:42;;;;;;;3.60;1.90;;;;;;;18.47;81.43;101418.69;5999026;28;20361;-67
2022/10/17 08:16:41;;;;;;;3.40;1.90;;;;;;;18.55;81.40;101424.03;5999042;28;20030;-67
2022/10/17 08:19:39;;;;;;;4.55;1.80;;;;;;;18.70;80.38;101411.44;5999095;28;20053;-67
2022/10/17 08:22:34;;;;;;;3.45;2.05;;;;;;;18.69;80.63;101418.72;5994286;28;20031;-67
2022/10/17 08:25:29;;;;;;;4.37;1.53;;;;;;;18.69;80.14;101405.28;5998932;28;20039;-67
2022/10/17 08:28:25;;;;;;;6.20;1.80;;;;;;;18.76;80.43;101422.31;5998344;28;20386;-67
2022/10/17 08:31:21;;;;;;;5.15;1.95;;;;;;;18.95;79.37;101402.16;5998218;28;20037;-67
2022/10/17 08:34:16;;;;;;;5.63;1.90;;;;;;;18.94;79.23;101401.31;5998565;28;20033;-67
2022/10/17 08:37:15;;;;;;;7.13;2.40;;;;;;;19.13;78.21;101399.97;5998955;28;20039;-67
2022/10/17 08:40:19;;;;;;;3.95;2.00;;;;;;;19.17;77.70;101403.94;5997311;28;20363;-67
2022/10/17 08:43:27;;;;;;;7.90;2.13;;;;;;;19.28;76.73;101397.25;5998583;28;20026;-67
2022/10/17 08:46:28;;;;;;;8.48;1.90;;;;;;;19.60;75.50;101396.88;5996684;28;20030;-67
2022/10/17 08:49:46;;;;;;;7.35;1.90;;;;;;;19.63;75.82;101401.91;6002019;28;20495;-67
2022/10/17 08:52:44;;;;;;;3.67;1.73;;;;;;;19.94;74.68;101402.50;5998027;28;20039;-67
2022/10/17 08:55:43;;;;;;;5.07;1.90;;;;;;;19.82;74.34;101409.38;5986729;28;20039;-67
2022/10/17 08:58:38;;;;;;;4.90;2.00;;;;;;;19.81;73.93;101398.81;5985776;28;20039;-67
2022/10/17 09:01:51;;;;;;;6.70;1.93;;;;;;;20.01;73.04;101406.09;5997677;28;20078;-67
2022/10/17 09:05:17;;;;;;;8.07;1.80;;;;;;;20.12;72.91;101385.88;6013385;28;20282;-67
2022/10/17 09:08:50;;;;;;;6.72;2.17;;;;;;;20.25;72.73;101396.00;5987020;28;20398;-66
2022/10/17 09:12:15;;;;;;;3.65;1.80;;;;;;;20.37;72.41;101398.00;5991099;28;20575;-67
2022/10/17 09:15:40;;;;;;;2.95;2.00;;;;;;;20.47;71.44;101400.34;6002898;28;20463;-67
2022/10/17 09:18:39;;;;;;;4.60;1.80;;;;;;;20.46;72.27;101404.09;6017460;28;20033;-67
2022/10/17 09:22:00;;;;;;;3.83;1.85;;;;;;;20.48;71.87;101397.47;6002006;28;20481;-67
2022/10/17 09:25:02;;;;;;;5.15;2.40;;;;;;;20.32;72.21;101381.56;6002293;28;20030;-67
2022/10/17 09:28:20;;;;;;;4.10;1.98;;;;;;;20.15;73.32;101380.97;6001015;28;20041;-67
2022/10/17 09:31:18;;;;;;;7.90;2.50;;;;;;;20.02;74.16;101369.22;6000431;28;20473;-68
2022/10/17 09:34:14;;;;;;;4.93;2.13;;;;;;;19.92;73.96;101369.50;6002336;28;20035;-67
2022/10/17 09:37:13;;;;;;;5.10;2.30;;;;;;;20.02;74.13;101375.44;5982669;28;20039;-67
2022/10/17 09:40:25;;;;;;;5.38;2.03;;;;;;;20.21;73.20;101384.75;6000325;28;20051;-67
2022/10/17 09:43:22;;;;;;;6.80;1.95;;;;;;;20.19;73.30;101382.22;6000717;28;20119;-66
2022/10/17 09:46:37;;;;;;;6.80;2.13;;;;;;;20.38;72.49;101393.44;6000918;28;20030;-67
2022/10/17 09:49:40;;;;;;;4.55;1.77;;;;;;;20.34;72.13;101384.06;6002044;28;20518;-67
2022/10/17 09:52:47;;;;;;;4.45;1.80;;;;;;;20.42;72.61;101392.00;6001311;28;20066;-67
2022/10/17 09:55:47;;;;;;;3.72;1.92;;;;;;;20.38;72.76;101386.19;6000637;28;20090;-68
2022/10/17 09:58:45;;;;;;;6.15;2.03;;;;;;;20.62;73.50;101401.13;6001854;28;20062;-68
2022/10/17 10:01:40;;;;;;;4.20;1.83;;;;;;;20.84;71.16;101386.56;6000347;28;20039;-67
2022/10/17 10:04:50;;;;;;;3.88;1.88;;;;;;;21.03;69.90;101395.81;6001469;28;20120;-67
2022/10/17 10:08:04;;;;;;;7.10;2.40;;;;;;;20.96;70.29;101398.47;6001421;28;20109;-68
2022/10/17 10:11:07;;;;;;;3.42;2.10;;;;;;;21.02;69.60;101400.38;5999845;28;20477;-66
2022/10/17 10:14:11;;;;;;;4.65;2.10;;;;;;;20.90;69.47;101385.75;6000966;28;20046;-67
2022/10/17 10:17:24;;;;;;;4.22;2.13;;;;;;;20.87;70.50;101407.75;6001894;28;20045;-68
2022/10/17 10:20:34;;;;;;;5.10;2.05;;;;;;;20.92;70.80;101397.22;6001107;28;20023;-67
2022/10/17 10:23:30;;;;;;;8.60;2.45;;;;;;;20.88;69.88;101393.22;6001573;28;20558;-67
2022/10/17 10:26:29;;;;;;;6.13;2.30;;;;;;;20.54;70.87;101399.41;6000168;28;20039;-67
2022/10/17 10:29:33;;;;;;;4.93;1.90;;;;;;;20.58;71.40;101399.81;6001141;28;20788;-68
2022/10/17 10:32:33;;;;;;;4.78;2.67;;;;;;;20.46;72.02;101393.31;5999444;28;20482;-67
2022/10/17 10:35:32;;;;;;;4.85;2.10;;;;;;;20.78;71.60;101403.53;6000787;28;20118;-67
2022/10/17 10:38:29;;;;;;;3.65;1.92;;;;;;;21.19;69.72;101407.19;5999903;28;20042;-67
2022/10/17 10:41:26;;;;;;;7.13;2.58;;;;;;;21.28;68.26;101397.03;6014480;28;20470;-67
2022/10/17 10:44:24;;;;;;;3.83;1.75;;;;;;;21.31;68.87;101402.88;6001468;28;20524;-68
2022/10/17 10:47:30;;;;;;;6.65;2.28;;;;;;;21.36;69.01;101400.41;6000950;28;20058;-67
2022/10/17 10:50:37;;;;;;;4.97;1.85;;;;;;;21.63;67.42;101414.88;5999144;28;20047;-68
2022/10/17 10:53:57;;;;;;;5.22;2.10;;;;;;;21.53;67.29;101414.41;6000514;28;20039;-67
2022/10/17 10:56:55;;;;;;;4.97;2.08;;;;;;;21.55;67.60;101425.03;5997897;28;20039;-68
2022/10/17 10:59:57;;;;;;;3.15;1.95;;;;;;;21.73;66.75;101425.31;6009886;28;20438;-67
2022/10/17 11:02:52;;;;;;;6.43;2.13;;;;;;;21.64;67.26;101421.09;5998568;28;20077;-68
2022/10/17 11:06:03;;;;;;;9.68;1.92;;;;;;;21.58;66.99;101394.94;6000619;28;20070;-67
2022/10/17 11:09:17;;;;;;;5.03;1.88;;;;;;;21.74;66.49;101421.59;6014637;28;20078;-68
2022/10/17 11:12:23;;;;;;;4.55;2.08;;;;;;;21.80;65.55;101424.28;5999804;28;20034;-68
2022/10/17 11:15:21;;;;;;;4.68;2.13;;;;;;;21.60;66.59;101423.38;6000271;28;20054;-68
2022/10/17 11:18:21;;;;;;;7.53;3.25;;;;;;;21.58;66.20;101421.94;6000462;28;20382;-68
2022/10/17 11:21:46;;;;;;;5.28;2.20;;;;;;;21.75;65.80;101440.28;6014308;28;20066;-68
2022/10/17 11:25:04;;;;;;;5.53;2.42;;;;;;;21.76;65.83;101443.81;5999365;28;20047;-68
2022/10/17 11:28:01;;;;;;;3.58;1.90;;;;;;;21.72;66.48;101439.81;5999880;28;20045;-67
2022/10/17 11:31:01;;;;;;;4.20;2.17;;;;;;;21.74;65.80;101435.88;5999425;28;20065;-68
2022/10/17 11:33:59;;;;;;;5.30;2.08;;;;;;;21.81;66.26;101444.88;5999545;28;20047;-67
2022/10/17 11:37:17;;;;;;;5.30;2.10;;;;;;;21.99;65.70;101422.72;5998050;28;20035;-68
2022/10/17 11:40:21;;;;;;;5.10;2.20;;;;;;;22.12;64.65;101416.53;5991760;28;20054;-67
2022/10/17 11:43:26;;;;;;;5.82;1.90;;;;;;;21.85;65.77;101407.50;6014155;28;20470;-67
2022/10/17 11:46:23;;;;;;;8.25;2.05;;;;;;;22.09;64.70;101404.28;5999220;28;20039;-68
2022/10/17 11:49:22;;;;;;;4.25;1.95;;;;;;;22.14;65.21;101407.19;5999128;28;20041;-68
2022/10/17 11:52:40;;;;;;;5.70;1.75;;;;;;;22.17;64.92;101398.69;5997007;28;20062;-68
2022/10/17 11:55:39;;;;;;;4.20;2.08;;;;;;;22.20;63.92;101402.84;5998219;28;20035;-68
2022/10/17 11:58:53;;;;;;;3.33;1.90;;;;;;;22.21;63.99;101412.59;5997830;28;20062;-68
2022/10/17 12:01:56;;;;;;;5.43;2.20;;;;;;;22.33;64.46;101402.84;5997124;28;20041;-68
2022/10/17 12:05:05;;;;;;;4.78;2.10;;;;;;;22.25;63.59;101401.19;5998155;28;20503;-68
2022/10/17 12:08:23;;;;;;;4.15;2.15;;;;;;;22.33;63.44;101400.16;5985107;28;20039;-68
2022/10/17 12:11:27;;;;;;;4.05;1.98;;;;;;;22.54;63.02;101402.66;5998081;28;20043;-68
2022/10/17 12:14:45;;;;;;;4.20;1.80;;;;;;;22.53;62.05;101418.03;5999189;28;20213;-68
2022/10/17 12:17:45;;;;;;;4.60;2.20;;;;;;;22.58;62.67;101411.19;5997521;28;20113;-68
2022/10/17 12:20:41;;;;;;;8.52;2.70;;;;;;;22.66;62.02;101411.03;5997200;28;20396;-68
2022/10/17 12:23:37;;;;;;;3.77;1.97;;;;;;;22.54;60.95;101402.66;5998914;28;20053;-68
2022/10/17 12:26:33;;;;;;;6.35;2.50;;;;;;;22.66;61.74;101401.03;5998843;28;20622;-68
2022/10/17 12:29:29;;;;;;;7.70;2.20;;;;;;;22.75;60.15;101401.63;5998142;28;20069;-67
2022/10/17 12:32:24;;;;;;;8.35;2.28;;;;;;;22.70;60.45;101406.84;5996242;28;20386;-68
2022/10/17 12:35:21;;;;;;;4.55;2.15;;;;;;;22.72;60.10;101399.38;5998011;28;20182;-68
2022/10/17 12:38:16;;;;;;;6.32;2.10;;;;;;;22.91;60.05;101403.94;5998467;28;20082;-68
2022/10/17 12:41:12;;;;;;;9.47;2.10;;;;;;;22.99;59.90;101404.53;5992482;28;20407;-68
2022/10/17 12:44:13;;;;;;;5.63;2.10;;;;;;;22.99;60.54;101409.94;5991875;28;20422;-68
2022/10/17 12:47:08;;;;;;;4.80;1.88;;;;;;;23.14;60.00;101409.72;5995663;28;20534;-68
2022/10/17 12:50:42;;;;;;;3.07;1.90;;;;;;;23.12;59.26;101411.81;5999986;28;20058;-68
2022/10/17 12:53:37;;;;;;;5.78;2.00;;;;;;;23.05;58.92;101410.97;6000261;28;20098;-68
2022/10/17 12:56:35;;;;;;;4.90;1.90;;;;;;;22.95;60.15;101405.19;6000475;28;20027;-68
2022/10/17 12:59:31;;;;;;;7.82;2.15;;;;;;;22.82;60.28;101399.78;5997667;28;20077;-68
2022/10/17 13:02:27;;;;;;;4.07;1.80;;;;;;;22.85;59.99;101404.78;5999261;28;20055;-67
2022/10/17 13:05:32;;;;;;;4.88;2.00;;;;;;;22.88;60.77;101418.69;6000640;28;20027;-68
2022/10/17 13:08:39;;;;;;;5.70;2.03;;;;;;;22.88;61.33;101421.41;5999835;28;20043;-68
2022/10/17 13:11:34;;;;;;;;;;;;;;;22.95;60.45;101429.53;5998938;28;20463;-68
2022/10/17 13:14:31;;;;;;;4.78;2.03;;;;;;;22.96;60.85;101428.50;5999919;28;19938;-68
2022/10/17 13:17:29;;;;;;;5.20;2.20;;;;;;;22.95;59.62;101421.41;5999524;28;20386;-68
2022/10/17 13:20:27;;;;;;;7.00;2.10;;;;;;;23.01;60.24;101437.66;5999352;28;20078;-68
2022/10/17 13:23:23;;;;;;;7.45;2.10;;;;;;;;;;6000535;28;20058;-68
2022/10/17 13:26:24;;;;;;;3.40;1.80;;;;;;;22.93;60.27;101450.56;5999908;28;20027;-68
2022/10/17 13:29:20;;;;;;;7.03;1.98;;;;;;;22.86;60.46;101444.28;5999108;28;20058;-68
2022/10/17 13:32:16;;;;;;;3.88;1.83;;;;;;;22.93;60.16;101455.97;5999061;28;20064;-68
2022/10/17 13:35:14;;;;;;;5.28;2.00;;;;;;;22.76;61.55;101446.59;5999939;28;20787;-68
2022/10/17 13:38:11;;;;;;;4.97;2.00;;;;;;;22.77;61.62;101464.50;6000111;28;20050;-68
2022/10/17 13:41:11;;;;;;;8.60;2.22;;;;;;;22.65;62.36;101469.69;5997763;28;20045;-68
2022/10/17 13:44:16;;;;;;;6.25;2.10;;;;;;;22.64;62.40;101468.00;5999635;28;20045;-68
2022/10/17 13:47:26;;;;;;;5.88;2.30;;;;;;;22.65;62.44;101466.97;5999822;28;20066;-68
2022/10/17 13:50:26;;;;;;;4.03;2.00;;;;;;;22.54;63.29;101478.38;6014165;28;20782;-68
2022/10/17 13:53:42;;;;;;;;;;;;;;;22.40;64.24;101482.91;5999061;28;20043;-68